Time;durP1;ratioP1;P1;durP2;ratioP2;P2;SDS_P1;SDS_P2;PMS_P1;PMS_P2;Temp;Humidity;BMP_temperature;BMP_pressure;BME280_temperature;BME280_humidity;BME280_pressure;Samples;Min_cycle;Max_cycle;Signal;HPM_P1;HPM_P2
2022/05/30 00:01:50;;;;;;;6.03;2.13;;;;;;;;;;6092351;23;20386;-92
2022/05/30 00:05:04;;;;;;;3.37;1.90;;;;;;;;;;6117131;23;20391;-91
2022/05/30 00:08:05;;;;;;;6.63;1.83;;;;;;;;;;6113671;23;20397;-91
2022/05/30 00:11:11;;;;;;;2.50;2.27;;;;;;;;;;6115216;23;20366;-90
2022/05/30 00:14:17;;;;;;;4.93;1.77;;;;;;;;;;6112792;23;20429;-92
2022/05/30 00:17:34;;;;;;;3.77;1.90;;;;;;;;;;6115839;23;20389;-92
2022/05/30 00:26:35;;;;;;;3.80;2.00;;;;;;;;;;6118836;23;20385;-92
2022/05/30 00:34:31;;;;;;;4.20;2.33;;;;;;;;;;6238264;23;20473;-92
2022/05/30 00:37:00;;;;;;;3.83;2.30;;;;;;;;;;6208424;23;20394;-92
2022/05/30 00:39:26;;;;;;;9.20;2.40;;;;;;;;;;6211646;23;20466;-92
2022/05/30 00:41:54;;;;;;;2.20;1.80;;;;;;;;;;6215860;23;20494;-92
2022/05/30 00:44:20;;;;;;;1.60;1.50;;;;;;;;;;6214921;23;20390;-92
2022/05/30 00:46:47;;;;;;;2.43;2.30;;;;;;;;;;6214426;23;20411;-91
2022/05/30 00:49:16;;;;;;;2.67;2.00;;;;;;;;;;6217423;23;20390;-91
2022/05/30 01:07:40;;;;;;;2.60;2.20;;;;;;;;;;6119210;23;20331;-92
2022/05/30 01:10:10;;;;;;;2.30;1.63;;;;;;;;;;6093577;23;20413;-87
2022/05/30 02:27:25;;;;;;;2.87;2.63;;;;;;;;;;6219407;22;20468;-90
2022/05/30 03:07:12;;;;;;;5.40;3.43;;;;;;;;;;6203456;22;20450;-91
2022/05/30 03:10:18;;;;;;;4.47;4.23;;;;;;;;;;6115602;23;20556;-93
2022/05/30 03:21:09;;;;;;;5.63;3.13;;;;;;;;;;6266531;23;20447;-91
2022/05/30 03:24:14;;;;;;;4.33;2.60;;;;;;;;;;6264274;23;20385;-87
2022/05/30 03:27:20;;;;;;;4.40;2.80;;;;;;;;;;6266580;23;20423;-92
2022/05/30 03:30:28;;;;;;;4.47;2.60;;;;;;;;;;6266571;23;20488;-91
2022/05/30 03:33:35;;;;;;;8.70;3.03;;;;;;;;;;6268882;23;20361;-94
2022/05/30 03:36:27;;;;;;;2.33;2.17;;;;;;;;;;6271238;22;20401;-91
2022/05/30 03:38:55;;;;;;;3.03;2.73;;;;;;;;;;6241485;23;20460;-92
2022/05/30 03:41:25;;;;;;;7.53;3.20;;;;;;;;;;6241181;23;20357;-91
2022/05/30 03:44:00;;;;;;;3.20;2.90;;;;;;;;;;6241520;22;20393;-92
2022/05/30 03:46:29;;;;;;;2.83;2.60;;;;;;;;;;6242608;23;20399;-92
2022/05/30 03:49:25;;;;;;;14.93;2.93;;;;;;;;;;6218570;22;20548;-92
2022/05/30 03:51:53;;;;;;;4.40;2.70;;;;;;;;;;6211525;23;20391;-92
2022/05/30 03:54:20;;;;;;;3.40;2.40;;;;;;;;;;6206956;23;20456;-92
2022/05/30 03:56:49;;;;;;;5.53;2.50;;;;;;;;;;6234227;23;20826;-89
2022/05/30 03:59:16;;;;;;;4.80;3.30;;;;;;;;;;6209612;23;20398;-91
2022/05/30 04:02:02;;;;;;;5.90;2.50;;;;;;;;;;6190786;23;20383;-91
2022/05/30 04:04:52;;;;;;;3.23;2.20;;;;;;;;;;6216566;23;20397;-91
2022/05/30 04:07:58;;;;;;;5.67;2.77;;;;;;;;;;6237850;23;20432;-92
2022/05/30 04:11:04;;;;;;;3.20;2.30;;;;;;;;;;6235544;22;20409;-93
2022/05/30 04:14:13;;;;;;;6.00;2.97;;;;;;;;;;6235241;23;20418;-91
2022/05/30 04:17:21;;;;;;;5.13;3.40;;;;;;;;;;6234775;23;20386;-91
2022/05/30 04:20:25;;;;;;;7.10;2.87;;;;;;;;;;6233865;23;20367;-92
2022/05/30 04:23:42;;;;;;;9.13;2.77;;;;;;;;;;6230741;23;20442;-92
2022/05/30 04:26:54;;;;;;;5.93;2.77;;;;;;;;;;6226352;23;20385;-91
2022/05/30 04:30:04;;;;;;;4.90;2.43;;;;;;;;;;6231987;23;20470;-91
2022/05/30 04:33:07;;;;;;;5.83;2.47;;;;;;;;;;6232709;23;20374;-93
2022/05/30 04:36:13;;;;;;;6.60;3.53;;;;;;;;;;6227174;22;20432;-91
2022/05/30 04:39:23;;;;;;;6.17;3.00;;;;;;;;;;6231304;23;20405;-91
2022/05/30 04:42:12;;;;;;;4.90;2.97;;;;;;;;;;6208266;23;20727;-91
2022/05/30 04:45:15;;;;;;;5.67;3.10;;;;;;;;;;6229561;23;20390;-91
2022/05/30 04:51:48;;;;;;;2.53;2.30;;;;;;;;;;6227797;23;20402;-92
2022/05/30 04:54:45;;;;;;;8.20;2.70;;;;;;;;;;6224075;23;20430;-92
2022/05/30 04:57:44;;;;;;;9.23;3.53;;;;;;;;;;6236644;23;20409;-93
2022/05/30 05:00:16;;;;;;;9.37;3.10;;;;;;;;;;6205508;23;20791;-93
2022/05/30 05:02:44;;;;;;;2.47;2.20;;;;;;;;;;6200517;23;20394;-92
2022/05/30 05:05:11;;;;;;;2.90;2.70;;;;;;;;;;6204459;23;20421;-90
2022/05/30 05:08:00;;;;;;;7.17;3.37;;;;;;;;;;6223991;23;20382;-92
2022/05/30 05:10:58;;;;;;;3.23;2.60;;;;;;;;;;6221483;23;20418;-93
2022/05/30 05:14:09;;;;;;;5.87;3.10;;;;;;;;;;6220215;23;20403;-92
2022/05/30 05:16:56;;;;;;;8.23;2.83;;;;;;;;;;6220487;23;21087;-92
2022/05/30 05:19:50;;;;;;;5.70;3.27;;;;;;;;;;6216024;23;20381;-91
2022/05/30 05:22:48;;;;;;;8.40;3.80;;;;;;;;;;6217356;23;20382;-92
2022/05/30 05:25:57;;;;;;;7.13;3.87;;;;;;;;;;6211626;23;20444;-92
2022/05/30 05:29:04;;;;;;;3.67;2.83;;;;;;;;;;6226348;23;20401;-92
2022/05/30 05:32:10;;;;;;;8.60;3.90;;;;;;;;;;6222714;23;20397;-91
2022/05/30 05:35:17;;;;;;;10.37;3.30;;;;;;;;;;6222286;23;20426;-91
2022/05/30 05:38:23;;;;;;;13.13;3.70;;;;;;;;;;6219920;23;20465;-90
2022/05/30 05:41:29;;;;;;;4.27;3.17;;;;;;;;;;6228704;23;20481;-89
2022/05/30 05:44:36;;;;;;;5.27;2.70;;;;;;;;;;6227090;23;20421;-91
2022/05/30 05:47:42;;;;;;;3.23;2.63;;;;;;;;;;6213242;23;20459;-89
2022/05/30 05:50:51;;;;;;;4.33;2.83;;;;;;;;;;6218914;23;20521;-89
2022/05/30 05:53:57;;;;;;;8.23;3.70;;;;;;;;;;6223374;23;20379;-87
2022/05/30 05:57:03;;;;;;;6.50;2.90;;;;;;;;;;6228668;23;20473;-90
2022/05/30 06:00:12;;;;;;;8.73;2.70;;;;;;;;;;6230618;23;20378;-88
2022/05/30 06:03:21;;;;;;;8.80;2.90;;;;;;;;;;6229338;23;20382;-91
2022/05/30 06:06:24;;;;;;;7.67;3.20;;;;;;;;;;6234159;23;20396;-91
2022/05/30 06:09:40;;;;;;;2.53;2.17;;;;;;;;;;6222885;23;20392;-90
2022/05/30 06:12:32;;;;;;;8.20;3.20;;;;;;;;;;6224898;23;20394;-91
2022/05/30 06:14:58;;;;;;;4.63;2.70;;;;;;;;;;6225751;23;20414;-91
2022/05/30 06:17:24;;;;;;;5.97;3.30;;;;;;;;;;6221939;23;20382;-88
2022/05/30 06:20:10;;;;;;;5.20;4.80;;;;;;;;;;6225441;23;20383;-92
2022/05/30 06:23:16;;;;;;;6.53;2.93;;;;;;;;;;6222781;23;20386;-90
2022/05/30 06:26:06;;;;;;;7.23;3.63;;;;;;;;;;6220892;23;20675;-90
2022/05/30 06:28:54;;;;;;;4.17;3.23;;;;;;;;;;6222050;23;20378;-91
2022/05/30 06:31:58;;;;;;;12.67;3.20;;;;;;;;;;6220387;23;20379;-92
2022/05/30 06:35:05;;;;;;;7.57;4.50;;;;;;;;;;6222410;23;20484;-91
2022/05/30 06:38:11;;;;;;;4.87;4.40;;;;;;;;;;6215552;23;20936;-90
2022/05/30 06:41:17;;;;;;;8.63;4.70;;;;;;;;;;6229472;23;20363;-92
2022/05/30 06:44:23;;;;;;;6.27;4.00;;;;;;;;;;6230539;23;20401;-92
2022/05/30 06:47:32;;;;;;;8.57;3.97;;;;;;;;;;6232601;23;20386;-91
2022/05/30 06:50:43;;;;;;;4.50;4.10;;;;;;;;;;6166686;23;20461;-91
2022/05/30 06:53:48;;;;;;;4.67;3.40;;;;;;;;;;6195164;23;20458;-82
2022/05/30 07:00:02;;;;;;;8.33;3.40;;;;;;;;;;6193313;23;20382;-90
2022/05/30 07:03:08;;;;;;;4.73;4.17;;;;;;;;;;6193059;23;20402;-92
2022/05/30 07:06:19;;;;;;;7.87;3.90;;;;;;;;;;6194371;23;20397;-90
2022/05/30 07:09:22;;;;;;;4.20;3.60;;;;;;;;;;6190841;23;20390;-92
2022/05/30 07:12:28;;;;;;;8.43;4.37;;;;;;;;;;6192866;23;20399;-92
2022/05/30 07:15:37;;;;;;;7.87;3.60;;;;;;;;;;6186059;23;20454;-90
2022/05/30 07:18:46;;;;;;;3.87;3.40;;;;;;;;;;6195032;23;20453;-92
2022/05/30 07:21:52;;;;;;;3.93;3.50;;;;;;;;;;6200332;23;20383;-91
2022/05/30 07:25:07;;;;;;;8.53;4.90;;;;;;;;;;6192563;23;20462;-91
2022/05/30 07:28:12;;;;;;;8.00;4.33;;;;;;;;;;6132431;22;20468;-91
2022/05/30 07:31:25;;;;;;;6.50;3.37;;;;;;;;;;6233744;22;20485;-91
2022/05/30 07:34:31;;;;;;;5.00;3.33;;;;;;;;;;6229183;22;20435;-91
2022/05/30 07:45:46;;;;;;;3.80;3.10;;;;;;;;;;6232189;22;20498;-91
2022/05/30 08:00:31;;;;;;;6.57;2.50;;;;;;;;;;6226851;23;20864;-92
2022/05/30 08:03:40;;;;;;;3.47;2.27;;;;;;;;;;6227031;23;20394;-92
2022/05/30 08:06:45;;;;;;;2.93;2.63;;;;;;;;;;6223067;23;20409;-90
2022/05/30 08:09:51;;;;;;;2.33;2.13;;;;;;;;;;6215375;23;20393;-91
2022/05/30 08:12:57;;;;;;;4.57;2.30;;;;;;;;;;6214578;23;20392;-91
2022/05/30 08:16:03;;;;;;;2.00;1.90;;;;;;;;;;6212530;23;20441;-90
2022/05/30 08:19:09;;;;;;;1.80;1.73;;;;;;;;;;6210555;23;20386;-92
2022/05/30 08:22:15;;;;;;;3.33;2.33;;;;;;;;;;6210740;23;20378;-91
2022/05/30 08:25:21;;;;;;;3.73;2.17;;;;;;;;;;6209948;23;20383;-89
2022/05/30 08:28:29;;;;;;;4.00;2.57;;;;;;;;;;6212357;23;20382;-92
2022/05/30 08:31:36;;;;;;;2.30;2.10;;;;;;;;;;6200570;23;20415;-93
2022/05/30 08:42:56;;;;;;;3.70;1.83;;;;;;;;;;6244883;23;20509;-89
2022/05/30 08:46:20;;;;;;;4.87;2.20;;;;;;;;;;6249231;23;20699;-91
2022/05/30 08:49:22;;;;;;;1.30;1.30;;;;;;;;;;6262497;22;20403;-93
2022/05/30 08:52:30;;;;;;;2.20;1.60;;;;;;;;;;6234995;22;20512;-94
2022/05/30 09:06:58;;;;;;;3.77;2.10;;;;;;;;;;6246819;23;20797;-87
2022/05/30 09:09:37;;;;;;;6.93;2.00;;;;;;;;;;6217995;23;20394;-87
2022/05/30 09:12:11;;;;;;;1.87;1.73;;;;;;;;;;6243030;23;20354;-87
2022/05/30 09:14:41;;;;;;;4.17;2.70;;;;;;;;;;6214775;23;20456;-86
2022/05/30 09:17:18;;;;;;;8.63;3.23;;;;;;;;;;6216934;23;20377;-87
2022/05/30 09:19:45;;;;;;;3.00;2.50;;;;;;;;;;6240713;23;20375;-87
2022/05/30 09:22:11;;;;;;;2.57;2.37;;;;;;;;;;6247480;23;20370;-86
2022/05/30 09:24:38;;;;;;;1.90;1.80;;;;;;;;;;6237722;23;20376;-87
2022/05/30 09:27:05;;;;;;;2.40;2.30;;;;;;;;;;6241971;23;20365;-85
2022/05/30 09:29:46;;;;;;;3.80;2.80;;;;;;;;;;6211942;23;20464;-84
2022/05/30 09:32:21;;;;;;;5.40;2.70;;;;;;;;;;6216230;23;20493;-87
2022/05/30 09:34:49;;;;;;;3.90;2.77;;;;;;;;;;6214604;23;21169;-86
2022/05/30 09:37:32;;;;;;;3.23;2.57;;;;;;;;;;6212714;23;20397;-86
2022/05/30 09:40:00;;;;;;;3.87;3.57;;;;;;;;;;6240135;23;20373;-84
2022/05/30 09:42:28;;;;;;;3.33;3.20;;;;;;;;;;6238557;23;20880;-86
2022/05/30 09:44:56;;;;;;;4.00;3.70;;;;;;;;;;6239673;23;20368;-87
2022/05/30 09:47:25;;;;;;;5.70;3.20;;;;;;;;;;6239402;23;20384;-87
2022/05/30 09:49:56;;;;;;;6.17;5.60;;;;;;;;;;6240490;23;20366;-87
2022/05/30 09:52:29;;;;;;;4.17;3.70;;;;;;;;;;6214032;23;20398;-86
2022/05/30 09:54:55;;;;;;;4.07;3.63;;;;;;;;;;6217063;23;20441;-87
2022/05/30 09:57:30;;;;;;;4.10;2.40;;;;;;;;;;6238282;23;20381;-86
2022/05/30 10:00:07;;;;;;;3.10;2.90;;;;;;;;;;6190375;23;20433;-85
2022/05/30 10:02:36;;;;;;;4.50;3.33;;;;;;;;;;6088535;23;20378;-86
2022/05/30 10:05:04;;;;;;;7.47;3.30;;;;;;;;;;6192435;23;20501;-87
2022/05/30 10:07:32;;;;;;;4.50;2.80;;;;;;;;;;6191045;23;20398;-87
2022/05/30 10:09:58;;;;;;;3.60;3.23;;;;;;;;;;6193611;23;20904;-86
2022/05/30 10:12:32;;;;;;;3.20;3.00;;;;;;;;;;6090311;23;20378;-85
2022/05/30 10:14:58;;;;;;;5.10;2.30;;;;;;;;;;6193245;23;20442;-87
2022/05/30 10:17:35;;;;;;;3.53;3.23;;;;;;;;;;6090408;23;20750;-88
2022/05/30 10:20:13;;;;;;;2.80;2.70;;;;;;;;;;6090344;23;20950;-87
2022/05/30 10:28:31;;;;;;;2.20;2.20;;;;;;;;;;6088621;23;20397;-88
2022/05/30 10:31:02;;;;;;;2.30;2.20;;;;;;;;;;6090130;23;20501;-88
2022/05/30 10:33:30;;;;;;;3.63;2.60;;;;;;;;;;6098543;23;20379;-87
2022/05/30 10:36:03;;;;;;;2.57;2.47;;;;;;;;;;6098501;23;20438;-90
2022/05/30 10:39:10;;;;;;;;;;;;;;;;;;;;;
2022/05/30 10:41:45;;;;;;;2.80;1.80;;;;;;;;;;6102897;23;20414;-87
2022/05/30 10:44:21;;;;;;;2.27;2.17;;;;;;;;;;6097923;23;20440;-90
2022/05/30 10:46:59;;;;;;;3.33;2.70;;;;;;;;;;6203062;23;20446;-90
2022/05/30 10:49:30;;;;;;;3.23;2.93;;;;;;;;;;6190774;23;20398;-88
2022/05/30 10:52:02;;;;;;;2.30;2.20;;;;;;;;;;6193038;23;20396;-88
2022/05/30 10:54:48;;;;;;;2.30;2.20;;;;;;;;;;6089543;23;20457;-87
2022/05/30 10:57:50;;;;;;;2.70;2.60;;;;;;;;;;6193018;23;20458;-89
2022/05/30 11:00:26;;;;;;;3.17;2.87;;;;;;;;;;6145446;23;20434;-88
2022/05/30 11:03:15;;;;;;;3.23;2.93;;;;;;;;;;6101160;23;20420;-88
2022/05/30 11:05:52;;;;;;;2.80;2.80;;;;;;;;;;6102522;23;20398;-90
2022/05/30 11:08:32;;;;;;;3.20;3.10;;;;;;;;;;6099229;23;20407;-90
2022/05/30 11:14:16;;;;;;;2.70;2.50;;;;;;;;;;6110985;23;20429;-88
2022/05/30 11:17:00;;;;;;;4.33;2.40;;;;;;;;;;6095416;23;20421;-89
2022/05/30 11:22:30;;;;;;;2.57;2.50;;;;;;;;;;6107848;23;20392;-89
2022/05/30 11:24:56;;;;;;;3.20;2.70;;;;;;;;;;6102700;23;20459;-89
2022/05/30 11:27:41;;;;;;;2.67;2.57;;;;;;;;;;6104269;23;20422;-91
2022/05/30 11:30:16;;;;;;;2.70;2.50;;;;;;;;;;6102609;23;20417;-92
2022/05/30 11:33:06;;;;;;;2.30;2.20;;;;;;;;;;6107704;23;20363;-91
2022/05/30 11:35:44;;;;;;;2.73;2.63;;;;;;;;;;6110839;23;20434;-91
2022/05/30 11:38:26;;;;;;;1.80;1.70;;;;;;;;;;6111879;23;20386;-94
2022/05/30 11:40:58;;;;;;;1.83;1.70;;;;;;;;;;6108630;23;20371;-93
2022/05/30 11:43:33;;;;;;;1.63;1.63;;;;;;;;;;6106872;23;20394;-88
2022/05/30 11:46:18;;;;;;;2.10;2.00;;;;;;;;;;6106162;23;20394;-92
2022/05/30 11:48:58;;;;;;;1.43;1.43;;;;;;;;;;6103930;23;20374;-91
2022/05/30 11:52:07;;;;;;;2.27;2.17;;;;;;;;;;6104124;23;20378;-91
2022/05/30 11:55:02;;;;;;;2.80;1.90;;;;;;;;;;6104777;23;20850;-92
2022/05/30 11:57:34;;;;;;;2.03;1.57;;;;;;;;;;6102371;23;20387;-90
2022/05/30 12:00:20;;;;;;;2.50;2.40;;;;;;;;;;6124651;23;20877;-91
2022/05/30 12:02:58;;;;;;;2.67;2.57;;;;;;;;;;6199450;23;20406;-93
2022/05/30 12:05:45;;;;;;;1.60;1.50;;;;;;;;;;6206676;23;20697;-92
2022/05/30 12:08:20;;;;;;;1.87;1.83;;;;;;;;;;6206973;23;20457;-91
2022/05/30 12:10:46;;;;;;;2.70;2.60;;;;;;;;;;6211402;23;20706;-90
2022/05/30 12:13:43;;;;;;;2.37;2.27;;;;;;;;;;6104923;23;20393;-92
2022/05/30 12:16:13;;;;;;;4.07;3.67;;;;;;;;;;6211866;22;20410;-90
2022/05/30 12:24:23;;;;;;;2.40;2.23;;;;;;;;;;6101493;23;20515;-91
2022/05/30 12:27:08;;;;;;;2.47;2.27;;;;;;;;;;6200658;23;20877;-89
2022/05/30 12:29:37;;;;;;;2.80;2.80;;;;;;;;;;6193963;23;20398;-90
2022/05/30 12:32:16;;;;;;;2.40;2.40;;;;;;;;;;6197816;23;20394;-91
2022/05/30 12:35:12;;;;;;;2.10;2.10;;;;;;;;;;6099338;23;20454;-89
2022/05/30 12:37:44;;;;;;;2.20;2.00;;;;;;;;;;6211305;23;20473;-91
2022/05/30 12:40:33;;;;;;;2.37;2.27;;;;;;;;;;6214286;22;20442;-94
2022/05/30 12:43:19;;;;;;;2.30;2.20;;;;;;;;;;6211245;23;20383;-90
2022/05/30 12:45:57;;;;;;;2.40;2.40;;;;;;;;;;6101756;23;20390;-91
2022/05/30 12:48:35;;;;;;;23.23;13.63;;;;;;;;;;6101503;23;20385;-93
2022/05/30 12:51:12;;;;;;;2.63;2.53;;;;;;;;;;6198375;23;20425;-90
2022/05/30 12:53:55;;;;;;;2.30;2.10;;;;;;;;;;6099918;23;20779;-92
2022/05/30 12:56:40;;;;;;;4.73;2.80;;;;;;;;;;6100643;23;20477;-92
2022/05/30 12:59:17;;;;;;;2.40;2.30;;;;;;;;;;6103660;23;20378;-91
2022/05/30 13:01:46;;;;;;;2.23;2.13;;;;;;;;;;6197663;23;20430;-91
2022/05/30 13:04:44;;;;;;;2.00;2.00;;;;;;;;;;6206371;22;20410;-91
2022/05/30 13:07:10;;;;;;;2.47;2.37;;;;;;;;;;6201723;23;20822;-91
2022/05/30 13:09:38;;;;;;;2.77;2.67;;;;;;;;;;6201740;23;20382;-91
2022/05/30 13:12:19;;;;;;;3.30;2.30;;;;;;;;;;6203212;23;20394;-90
2022/05/30 13:14:58;;;;;;;2.83;2.73;;;;;;;;;;6232421;23;20504;-89
2022/05/30 13:17:31;;;;;;;2.53;2.40;;;;;;;;;;6223567;23;20374;-90
2022/05/30 13:20:03;;;;;;;2.50;2.40;;;;;;;;;;6222038;23;20347;-91
2022/05/30 13:22:31;;;;;;;2.03;2.03;;;;;;;;;;6217487;23;20386;-90
2022/05/30 13:25:03;;;;;;;2.83;2.70;;;;;;;;;;6192933;23;20374;-86
2022/05/30 13:27:30;;;;;;;2.03;1.93;;;;;;;;;;6218464;23;20770;-90
2022/05/30 13:30:09;;;;;;;2.20;2.10;;;;;;;;;;6193896;23;20438;-91
2022/05/30 13:32:38;;;;;;;2.27;2.13;;;;;;;;;;6216865;23;20366;-89
2022/05/30 13:35:06;;;;;;;2.43;2.43;;;;;;;;;;6193576;23;20426;-91
2022/05/30 13:37:33;;;;;;;2.40;2.30;;;;;;;;;;6191912;23;20406;-89
2022/05/30 13:40:01;;;;;;;2.43;2.23;;;;;;;;;;6196885;23;20393;-88
2022/05/30 13:42:31;;;;;;;2.23;2.13;;;;;;;;;;6211356;23;20399;-89
2022/05/30 13:44:58;;;;;;;2.40;2.33;;;;;;;;;;6214387;23;20385;-89
2022/05/30 13:47:26;;;;;;;2.87;2.77;;;;;;;;;;6214973;23;20401;-88
2022/05/30 13:49:52;;;;;;;2.30;2.20;;;;;;;;;;6215376;23;20512;-90
2022/05/30 13:52:22;;;;;;;2.47;2.30;;;;;;;;;;6222416;23;20477;-90
2022/05/30 13:54:50;;;;;;;2.37;2.17;;;;;;;;;;6193690;23;20426;-90
2022/05/30 13:57:17;;;;;;;4.27;3.10;;;;;;;;;;6222193;23;20402;-91
2022/05/30 13:59:57;;;;;;;2.17;2.03;;;;;;;;;;6230113;23;20480;-89
2022/05/30 14:02:26;;;;;;;2.70;2.47;;;;;;;;;;6252433;23;20393;-88
2022/05/30 14:04:57;;;;;;;2.20;2.07;;;;;;;;;;6250195;23;20400;-88
2022/05/30 14:07:33;;;;;;;2.40;2.20;;;;;;;;;;6222611;23;20409;-90
2022/05/30 14:10:00;;;;;;;2.07;2.00;;;;;;;;;;6219173;23;20472;-89
2022/05/30 14:12:35;;;;;;;3.90;3.40;;;;;;;;;;6217076;23;20401;-90
2022/05/30 14:15:09;;;;;;;4.53;2.60;;;;;;;;;;6247178;23;20547;-89
2022/05/30 14:17:55;;;;;;;2.80;2.57;;;;;;;;;;6218791;23;20523;-89
2022/05/30 14:20:44;;;;;;;2.20;2.10;;;;;;;;;;6247122;23;20805;-86
2022/05/30 14:23:11;;;;;;;5.20;2.50;;;;;;;;;;6221390;23;20385;-90
2022/05/30 14:25:38;;;;;;;2.63;2.50;;;;;;;;;;6217891;23;20454;-87
2022/05/30 14:28:25;;;;;;;3.03;2.73;;;;;;;;;;6246483;23;20468;-91
2022/05/30 14:31:30;;;;;;;4.43;2.70;;;;;;;;;;6248192;23;20440;-88
2022/05/30 14:34:39;;;;;;;4.53;2.20;;;;;;;;;;6250475;23;20429;-92
2022/05/30 14:37:49;;;;;;;2.10;2.00;;;;;;;;;;6248722;23;20426;-90
2022/05/30 14:40:38;;;;;;;2.63;2.43;;;;;;;;;;6250175;23;20389;-90
2022/05/30 14:43:43;;;;;;;2.70;2.60;;;;;;;;;;6257630;23;20824;-92
2022/05/30 14:46:29;;;;;;;2.33;2.17;;;;;;;;;;6252879;23;20588;-91
2022/05/30 14:48:55;;;;;;;2.30;2.20;;;;;;;;;;6252416;23;20405;-89
2022/05/30 14:51:22;;;;;;;2.10;2.10;;;;;;;;;;6253241;23;20362;-91
2022/05/30 14:53:50;;;;;;;2.33;1.60;;;;;;;;;;6223812;23;20450;-90
2022/05/30 14:56:24;;;;;;;3.30;1.83;;;;;;;;;;6226071;23;20405;-91
2022/05/30 14:58:56;;;;;;;2.83;2.13;;;;;;;;;;6226125;23;20373;-92
2022/05/30 15:01:25;;;;;;;2.00;1.90;;;;;;;;;;6228499;23;20421;-89
2022/05/30 15:04:12;;;;;;;1.70;1.70;;;;;;;;;;6242610;23;20398;-89
2022/05/30 15:06:43;;;;;;;2.23;2.13;;;;;;;;;;6226369;23;20393;-90
2022/05/30 15:09:10;;;;;;;1.90;1.80;;;;;;;;;;6223411;23;20397;-91
2022/05/30 15:11:57;;;;;;;1.80;1.67;;;;;;;;;;6226678;23;20397;-92
2022/05/30 15:14:42;;;;;;;3.33;1.90;;;;;;;;;;6250016;23;20590;-90
2022/05/30 15:17:09;;;;;;;1.30;1.30;;;;;;;;;;6224159;23;20859;-89
2022/05/30 15:19:35;;;;;;;2.07;1.97;;;;;;;;;;6254495;23;20402;-92
2022/05/30 15:22:05;;;;;;;3.17;2.93;;;;;;;;;;6228521;23;20397;-90
2022/05/30 15:24:34;;;;;;;1.63;1.30;;;;;;;;;;6257291;23;20377;-91
2022/05/30 15:27:02;;;;;;;1.63;1.53;;;;;;;;;;6255382;23;20381;-92
2022/05/30 15:29:28;;;;;;;2.90;2.43;;;;;;;;;;6223114;23;20539;-89
2022/05/30 15:31:56;;;;;;;2.20;1.87;;;;;;;;;;6225617;23;20394;-91
2022/05/30 15:34:22;;;;;;;1.50;1.47;;;;;;;;;;6256188;23;20421;-90
2022/05/30 15:36:48;;;;;;;1.17;1.13;;;;;;;;;;6230148;23;20390;-90
2022/05/30 15:39:36;;;;;;;2.33;2.23;;;;;;;;;;6222285;23;20443;-91
2022/05/30 15:42:05;;;;;;;1.97;1.87;;;;;;;;;;6250792;23;20428;-90
2022/05/30 15:44:31;;;;;;;1.97;1.80;;;;;;;;;;6220640;23;20409;-90
2022/05/30 15:46:58;;;;;;;1.40;1.40;;;;;;;;;;6220788;23;20726;-91
2022/05/30 15:49:26;;;;;;;1.60;1.50;;;;;;;;;;6227901;23;20737;-92
2022/05/30 15:57:17;;;;;;;2.10;2.10;;;;;;;;;;6212937;23;20438;-86
2022/05/30 15:59:45;;;;;;;7.17;6.43;;;;;;;;;;6117522;23;20931;-87
2022/05/30 16:02:11;;;;;;;1.87;1.77;;;;;;;;;;6112741;23;20604;-86
2022/05/30 16:04:37;;;;;;;1.90;1.80;;;;;;;;;;6217258;23;20962;-87
2022/05/30 16:07:04;;;;;;;2.60;1.50;;;;;;;;;;6113207;23;20386;-87
2022/05/30 16:09:32;;;;;;;3.53;2.40;;;;;;;;;;6216332;23;20451;-86
2022/05/30 16:11:59;;;;;;;1.60;1.50;;;;;;;;;;6213162;23;20734;-86
2022/05/30 16:14:44;;;;;;;1.90;1.80;;;;;;;;;;6117012;23;21224;-86
2022/05/30 16:17:50;;;;;;;2.38;1.50;;;;;;;;;;6114379;23;20386;-87
2022/05/30 16:20:56;;;;;;;2.07;1.83;;;;;;;;;;6115264;23;20219;-87
2022/05/30 16:24:02;;;;;;;1.87;1.77;;;;;;;;;;6109482;23;20420;-86
2022/05/30 16:26:48;;;;;;;3.17;2.30;;;;;;;;;;6116464;23;20393;-86
2022/05/30 16:29:14;;;;;;;1.93;1.93;;;;;;;;;;6226346;23;20420;-91
2022/05/30 16:31:41;;;;;;;2.17;1.97;;;;;;;;;;6128544;23;20385;-92
2022/05/30 16:34:27;;;;;;;2.43;2.23;;;;;;;;;;6236077;23;20895;-93
2022/05/30 16:37:17;;;;;;;2.70;2.50;;;;;;;;;;6135360;22;20412;-90
2022/05/30 16:40:22;;;;;;;1.83;1.70;;;;;;;;;;6133104;23;20380;-93
2022/05/30 16:43:28;;;;;;;1.87;1.77;;;;;;;;;;6133415;23;20464;-91
2022/05/30 16:46:34;;;;;;;2.50;2.00;;;;;;;;;;6138278;23;20469;-91
2022/05/30 16:49:40;;;;;;;3.23;2.27;;;;;;;;;;6144493;23;20385;-93
2022/05/30 16:52:46;;;;;;;2.53;2.47;;;;;;;;;;6135716;23;20381;-92
2022/05/30 16:55:52;;;;;;;3.67;3.10;;;;;;;;;;6129799;23;20452;-93
2022/05/30 16:59:01;;;;;;;2.80;1.70;;;;;;;;;;6131118;23;20388;-92
2022/05/30 17:02:14;;;;;;;3.33;2.10;;;;;;;;;;6129215;23;20396;-93
2022/05/30 17:05:23;;;;;;;2.23;2.13;;;;;;;;;;6131792;23;20473;-90
2022/05/30 17:08:29;;;;;;;3.73;2.13;;;;;;;;;;6132731;23;20443;-93
2022/05/30 17:11:35;;;;;;;4.43;2.10;;;;;;;;;;6120632;23;20404;-88
2022/05/30 17:14:24;;;;;;;3.07;2.80;;;;;;;;;;6116605;23;20444;-90
2022/05/30 17:16:55;;;;;;;1.90;1.80;;;;;;;;;;6123417;22;20389;-93
2022/05/30 17:19:50;;;;;;;4.37;2.10;;;;;;;;;;6221541;23;20389;-91
2022/05/30 17:22:42;;;;;;;2.30;1.97;;;;;;;;;;6220312;23;20390;-89
2022/05/30 17:25:44;;;;;;;4.03;2.60;;;;;;;;;;6119284;23;20400;-93
2022/05/30 17:29:10;;;;;;;2.23;2.20;;;;;;;;;;6121672;23;20495;-90
2022/05/30 17:32:17;;;;;;;14.23;3.30;;;;;;;;;;6125024;23;20385;-89
2022/05/30 17:35:23;;;;;;;2.50;2.40;;;;;;;;;;6116567;23;20769;-92
2022/05/30 17:38:29;;;;;;;1.67;1.67;;;;;;;;;;6117750;23;21052;-88
2022/05/30 17:41:34;;;;;;;2.03;1.83;;;;;;;;;;6118532;23;20389;-90
2022/05/30 17:44:40;;;;;;;2.10;2.00;;;;;;;;;;6119227;23;20444;-88
2022/05/30 17:47:49;;;;;;;4.33;4.03;;;;;;;;;;6122473;23;20378;-89
2022/05/30 17:51:11;;;;;;;2.07;1.97;;;;;;;;;;6121416;23;20448;-90
2022/05/30 17:54:16;;;;;;;2.60;2.20;;;;;;;;;;6123211;22;20436;-91
2022/05/30 17:57:03;;;;;;;2.37;2.20;;;;;;;;;;6121163;23;20414;-90
2022/05/30 17:59:30;;;;;;;2.53;2.53;;;;;;;;;;6229064;23;20404;-90
2022/05/30 18:01:56;;;;;;;2.70;2.60;;;;;;;;;;6130086;23;20397;-90
2022/05/30 18:04:43;;;;;;;2.57;2.43;;;;;;;;;;6128909;23;20422;-91
2022/05/30 18:07:47;;;;;;;2.10;2.00;;;;;;;;;;6126864;23;20389;-91
2022/05/30 18:10:56;;;;;;;3.10;2.77;;;;;;;;;;6119676;23;20381;-89
2022/05/30 18:13:46;;;;;;;2.93;2.30;;;;;;;;;;6121130;23;20385;-90
2022/05/30 18:16:12;;;;;;;6.80;2.60;;;;;;;;;;6120296;23;20437;-90
2022/05/30 18:22:04;;;;;;;2.87;2.30;;;;;;;;;;6119303;23;20431;-91
2022/05/30 18:24:52;;;;;;;;;;;;;;;;;;;;;
2022/05/30 18:27:18;;;;;;;4.60;2.10;;;;;;;;;;6120916;23;20782;-91
2022/05/30 18:29:45;;;;;;;2.60;2.50;;;;;;;;;;6120393;23;20435;-90
2022/05/30 18:32:22;;;;;;;3.60;2.57;;;;;;;;;;6221058;23;20397;-90
2022/05/30 18:35:03;;;;;;;2.27;2.17;;;;;;;;;;6119463;23;20417;-91
2022/05/30 18:37:32;;;;;;;2.30;2.20;;;;;;;;;;6222046;23;20431;-90
2022/05/30 18:40:07;;;;;;;2.93;2.83;;;;;;;;;;6119401;23;20439;-86
2022/05/30 18:42:49;;;;;;;2.23;2.23;;;;;;;;;;6221215;23;20448;-90
2022/05/30 18:45:19;;;;;;;1.90;1.80;;;;;;;;;;6221334;23;20420;-90
2022/05/30 18:47:49;;;;;;;2.67;2.47;;;;;;;;;;6219413;23;20424;-91
2022/05/30 18:50:16;;;;;;;2.47;2.27;;;;;;;;;;6220902;23;20903;-90
2022/05/30 18:52:44;;;;;;;3.23;2.23;;;;;;;;;;6117022;23;20393;-92
2022/05/30 18:55:15;;;;;;;3.50;2.77;;;;;;;;;;6220325;22;20454;-91
2022/05/30 18:57:54;;;;;;;3.03;2.90;;;;;;;;;;6119077;23;20411;-92
2022/05/30 19:00:21;;;;;;;3.63;2.40;;;;;;;;;;6220859;23;20393;-92
2022/05/30 19:02:49;;;;;;;6.03;3.00;;;;;;;;;;6118381;23;20685;-91
2022/05/30 19:05:17;;;;;;;2.33;2.23;;;;;;;;;;6120915;23;20427;-91
2022/05/30 19:08:03;;;;;;;4.17;2.50;;;;;;;;;;6220859;23;20472;-91
2022/05/30 19:11:24;;;;;;;2.90;2.70;;;;;;;;;;6119321;23;20845;-91
2022/05/30 19:14:20;;;;;;;3.63;2.73;;;;;;;;;;6117137;23;20385;-92
2022/05/30 19:17:23;;;;;;;2.80;2.67;;;;;;;;;;6117948;23;20389;-90
2022/05/30 19:19:49;;;;;;;3.30;3.13;;;;;;;;;;6219499;23;20394;-91
2022/05/30 19:22:16;;;;;;;2.47;2.37;;;;;;;;;;6216638;23;20405;-91
2022/05/30 19:24:43;;;;;;;2.17;2.03;;;;;;;;;;6110067;23;20385;-91
2022/05/30 19:27:10;;;;;;;2.20;2.00;;;;;;;;;;6216159;23;20904;-91
2022/05/30 19:29:41;;;;;;;3.77;3.57;;;;;;;;;;6219308;23;20476;-90
2022/05/30 19:32:12;;;;;;;1.90;1.90;;;;;;;;;;6216229;23;20381;-91
2022/05/30 19:34:39;;;;;;;4.90;2.00;;;;;;;;;;6117492;23;20563;-91
2022/05/30 19:37:05;;;;;;;2.10;2.10;;;;;;;;;;6218621;23;20404;-90
2022/05/30 19:39:32;;;;;;;1.93;1.83;;;;;;;;;;6192446;23;20427;-92
2022/05/30 19:42:00;;;;;;;2.53;2.50;;;;;;;;;;6117746;22;20377;-91
2022/05/30 19:44:28;;;;;;;2.13;1.93;;;;;;;;;;6219797;23;20462;-91
2022/05/30 19:46:54;;;;;;;2.03;2.03;;;;;;;;;;6197485;23;20500;-91
2022/05/30 19:49:21;;;;;;;2.70;2.60;;;;;;;;;;6219600;23;20417;-89
2022/05/30 19:51:47;;;;;;;2.77;2.63;;;;;;;;;;6221033;23;20393;-90
2022/05/30 19:54:15;;;;;;;3.57;3.17;;;;;;;;;;6219951;22;20444;-89
2022/05/30 19:56:41;;;;;;;2.03;2.00;;;;;;;;;;6220918;23;20393;-89
2022/05/30 19:59:11;;;;;;;2.50;2.40;;;;;;;;;;6219259;23;20401;-89
2022/05/30 20:01:38;;;;;;;2.60;2.50;;;;;;;;;;6219955;23;20724;-89
2022/05/30 20:04:24;;;;;;;2.77;2.67;;;;;;;;;;6218605;23;20492;-90
2022/05/30 20:07:29;;;;;;;3.80;3.50;;;;;;;;;;6119713;23;20395;-93
2022/05/30 20:10:35;;;;;;;3.37;3.10;;;;;;;;;;6118899;23;20465;-92
2022/05/30 20:13:41;;;;;;;3.70;3.50;;;;;;;;;;6119872;23;20489;-89